sensor_id;sensor_type;location;lat;lon;timestamp;P1;durP1;ratioP1;P2;durP2;ratioP2
13973;SDS011;7060;43.770;4.008;2022-12-31T00:00:25;20.17;;;16.53;;
13973;SDS011;7060;43.770;4.008;2022-12-31T00:02:53;20.83;;;16.10;;
13973;SDS011;7060;43.770;4.008;2022-12-31T00:05:22;20.57;;;16.17;;
13973;SDS011;7060;43.770;4.008;2022-12-31T00:07:50;20.77;;;16.80;;
13973;SDS011;7060;43.770;4.008;2022-12-31T00:10:19;24.37;;;16.60;;
13973;SDS011;7060;43.770;4.008;2022-12-31T00:12:49;19.23;;;16.10;;
13973;SDS011;7060;43.770;4.008;2022-12-31T00:15:18;21.03;;;15.77;;
13973;SDS011;7060;43.770;4.008;2022-12-31T00:17:46;21.30;;;15.87;;
13973;SDS011;7060;43.770;4.008;2022-12-31T00:20:14;23.03;;;18.70;;
13973;SDS011;7060;43.770;4.008;2022-12-31T00:22:43;25.60;;;19.83;;
13973;SDS011;7060;43.770;4.008;2022-12-31T00:25:11;22.20;;;17.03;;
13973;SDS011;7060;43.770;4.008;2022-12-31T00:27:40;19.60;;;16.53;;
13973;SDS011;7060;43.770;4.008;2022-12-31T00:30:10;23.40;;;17.63;;
13973;SDS011;7060;43.770;4.008;2022-12-31T00:32:40;20.73;;;16.90;;
13973;SDS011;7060;43.770;4.008;2022-12-31T00:35:08;21.73;;;16.47;;
13973;SDS011;7060;43.770;4.008;2022-12-31T00:37:37;21.97;;;16.93;;
13973;SDS011;7060;43.770;4.008;2022-12-31T00:40:07;18.47;;;15.90;;
13973;SDS011;7060;43.770;4.008;2022-12-31T00:42:36;19.80;;;16.33;;
13973;SDS011;7060;43.770;4.008;2022-12-31T00:45:05;17.47;;;14.60;;
13973;SDS011;7060;43.770;4.008;2022-12-31T00:47:36;17.97;;;14.50;;
13973;SDS011;7060;43.770;4.008;2022-12-31T00:50:05;15.70;;;13.80;;
13973;SDS011;7060;43.770;4.008;2022-12-31T00:52:34;15.90;;;13.23;;
13973;SDS011;7060;43.770;4.008;2022-12-31T00:55:02;19.00;;;13.93;;
13973;SDS011;7060;43.770;4.008;2022-12-31T00:57:31;18.83;;;13.93;;
13973;SDS011;7060;43.770;4.008;2022-12-31T00:59:59;16.77;;;13.43;;
13973;SDS011;7060;43.770;4.008;2022-12-31T01:02:28;20.87;;;13.93;;
13973;SDS011;7060;43.770;4.008;2022-12-31T01:04:58;14.10;;;12.63;;
13973;SDS011;7060;43.770;4.008;2022-12-31T01:07:26;17.37;;;13.90;;
13973;SDS011;7060;43.770;4.008;2022-12-31T01:09:55;16.10;;;13.03;;
13973;SDS011;7060;43.770;4.008;2022-12-31T01:12:23;18.90;;;12.60;;
13973;SDS011;7060;43.770;4.008;2022-12-31T01:14:52;19.27;;;13.47;;
13973;SDS011;7060;43.770;4.008;2022-12-31T01:17:20;14.47;;;12.87;;
13973;SDS011;7060;43.770;4.008;2022-12-31T01:19:48;15.73;;;13.23;;
13973;SDS011;7060;43.770;4.008;2022-12-31T01:22:18;23.23;;;13.50;;
13973;SDS011;7060;43.770;4.008;2022-12-31T01:24:47;14.10;;;12.60;;
13973;SDS011;7060;43.770;4.008;2022-12-31T01:27:15;16.63;;;12.77;;
13973;SDS011;7060;43.770;4.008;2022-12-31T01:29:44;16.33;;;12.83;;
13973;SDS011;7060;43.770;4.008;2022-12-31T01:32:12;15.03;;;12.73;;
13973;SDS011;7060;43.770;4.008;2022-12-31T01:34:40;16.27;;;12.60;;
13973;SDS011;7060;43.770;4.008;2022-12-31T01:37:10;15.83;;;12.30;;
13973;SDS011;7060;43.770;4.008;2022-12-31T01:39:39;17.27;;;13.40;;
13973;SDS011;7060;43.770;4.008;2022-12-31T01:42:08;16.13;;;13.93;;
13973;SDS011;7060;43.770;4.008;2022-12-31T01:44:47;19.30;;;14.93;;
13973;SDS011;7060;43.770;4.008;2022-12-31T01:47:19;15.50;;;12.50;;
13973;SDS011;7060;43.770;4.008;2022-12-31T01:49:55;16.33;;;13.10;;
13973;SDS011;7060;43.770;4.008;2022-12-31T01:52:28;16.60;;;13.40;;
13973;SDS011;7060;43.770;4.008;2022-12-31T01:55:01;20.37;;;14.10;;
13973;SDS011;7060;43.770;4.008;2022-12-31T01:57:35;14.83;;;12.07;;
13973;SDS011;7060;43.770;4.008;2022-12-31T02:00:05;13.47;;;12.07;;
13973;SDS011;7060;43.770;4.008;2022-12-31T02:02:38;18.40;;;13.37;;
13973;SDS011;7060;43.770;4.008;2022-12-31T02:05:09;16.53;;;13.30;;
13973;SDS011;7060;43.770;4.008;2022-12-31T02:07:46;22.83;;;14.17;;
13973;SDS011;7060;43.770;4.008;2022-12-31T02:10:16;14.83;;;11.90;;
13973;SDS011;7060;43.770;4.008;2022-12-31T02:12:46;14.17;;;12.00;;
13973;SDS011;7060;43.770;4.008;2022-12-31T02:15:15;17.93;;;12.37;;
13973;SDS011;7060;43.770;4.008;2022-12-31T02:17:47;22.87;;;13.83;;
13973;SDS011;7060;43.770;4.008;2022-12-31T02:23:53;16.30;;;11.87;;
13973;SDS011;7060;43.770;4.008;2022-12-31T02:26:54;19.90;;;13.27;;
13973;SDS011;7060;43.770;4.008;2022-12-31T02:32:27;14.90;;;11.70;;
13973;SDS011;7060;43.770;4.008;2022-12-31T02:35:04;13.70;;;11.87;;
13973;SDS011;7060;43.770;4.008;2022-12-31T02:37:37;13.90;;;11.00;;
13973;SDS011;7060;43.770;4.008;2022-12-31T02:40:09;14.70;;;12.70;;
13973;SDS011;7060;43.770;4.008;2022-12-31T02:42:41;19.77;;;13.33;;
13973;SDS011;7060;43.770;4.008;2022-12-31T02:45:16;16.07;;;12.70;;
13973;SDS011;7060;43.770;4.008;2022-12-31T02:47:53;17.57;;;11.70;;
13973;SDS011;7060;43.770;4.008;2022-12-31T02:50:36;16.23;;;13.80;;
13973;SDS011;7060;43.770;4.008;2022-12-31T02:53:24;17.83;;;13.87;;
13973;SDS011;7060;43.770;4.008;2022-12-31T02:56:12;16.40;;;13.63;;
13973;SDS011;7060;43.770;4.008;2022-12-31T02:58:47;17.33;;;13.67;;
13973;SDS011;7060;43.770;4.008;2022-12-31T03:01:46;16.17;;;13.27;;
13973;SDS011;7060;43.770;4.008;2022-12-31T03:04:37;16.47;;;13.40;;
13973;SDS011;7060;43.770;4.008;2022-12-31T03:07:07;15.07;;;12.70;;
13973;SDS011;7060;43.770;4.008;2022-12-31T03:09:38;13.53;;;11.37;;
13973;SDS011;7060;43.770;4.008;2022-12-31T03:12:08;15.57;;;11.47;;
13973;SDS011;7060;43.770;4.008;2022-12-31T03:14:55;13.13;;;11.70;;
13973;SDS011;7060;43.770;4.008;2022-12-31T03:17:24;13.40;;;11.00;;
13973;SDS011;7060;43.770;4.008;2022-12-31T03:19:54;12.33;;;10.70;;
13973;SDS011;7060;43.770;4.008;2022-12-31T03:22:41;14.27;;;10.73;;
13973;SDS011;7060;43.770;4.008;2022-12-31T03:25:11;15.77;;;11.63;;
13973;SDS011;7060;43.770;4.008;2022-12-31T03:27:58;14.47;;;12.13;;
13973;SDS011;7060;43.770;4.008;2022-12-31T03:30:28;14.27;;;11.53;;
13973;SDS011;7060;43.770;4.008;2022-12-31T03:32:57;15.57;;;11.50;;
13973;SDS011;7060;43.770;4.008;2022-12-31T03:35:28;17.40;;;12.13;;
13973;SDS011;7060;43.770;4.008;2022-12-31T03:37:58;16.97;;;11.80;;
13973;SDS011;7060;43.770;4.008;2022-12-31T03:40:27;14.70;;;11.43;;
13973;SDS011;7060;43.770;4.008;2022-12-31T03:42:56;14.47;;;12.33;;
13973;SDS011;7060;43.770;4.008;2022-12-31T03:45:25;17.37;;;12.57;;
13973;SDS011;7060;43.770;4.008;2022-12-31T03:47:53;13.07;;;11.57;;
13973;SDS011;7060;43.770;4.008;2022-12-31T03:50:23;14.30;;;11.40;;
13973;SDS011;7060;43.770;4.008;2022-12-31T03:52:53;16.50;;;12.43;;
13973;SDS011;7060;43.770;4.008;2022-12-31T03:55:21;15.40;;;12.27;;
13973;SDS011;7060;43.770;4.008;2022-12-31T03:57:50;20.07;;;13.93;;
13973;SDS011;7060;43.770;4.008;2022-12-31T04:00:19;17.00;;;13.40;;
13973;SDS011;7060;43.770;4.008;2022-12-31T04:02:48;16.20;;;12.83;;
13973;SDS011;7060;43.770;4.008;2022-12-31T04:05:17;17.80;;;12.43;;
13973;SDS011;7060;43.770;4.008;2022-12-31T04:07:46;13.37;;;11.73;;
13973;SDS011;7060;43.770;4.008;2022-12-31T04:10:19;15.70;;;12.30;;
13973;SDS011;7060;43.770;4.008;2022-12-31T04:12:47;17.00;;;13.00;;
13973;SDS011;7060;43.770;4.008;2022-12-31T04:15:16;14.83;;;13.13;;
13973;SDS011;7060;43.770;4.008;2022-12-31T04:17:46;16.67;;;11.87;;
13973;SDS011;7060;43.770;4.008;2022-12-31T04:20:15;15.80;;;12.47;;
13973;SDS011;7060;43.770;4.008;2022-12-31T04:22:44;21.00;;;14.83;;
13973;SDS011;7060;43.770;4.008;2022-12-31T04:25:13;16.00;;;13.13;;
13973;SDS011;7060;43.770;4.008;2022-12-31T04:27:44;19.47;;;13.27;;
13973;SDS011;7060;43.770;4.008;2022-12-31T04:30:12;20.00;;;13.83;;
13973;SDS011;7060;43.770;4.008;2022-12-31T04:32:41;15.93;;;12.93;;
13973;SDS011;7060;43.770;4.008;2022-12-31T04:35:10;20.03;;;14.73;;
13973;SDS011;7060;43.770;4.008;2022-12-31T04:37:39;15.07;;;13.47;;
13973;SDS011;7060;43.770;4.008;2022-12-31T04:40:07;16.33;;;13.40;;
13973;SDS011;7060;43.770;4.008;2022-12-31T04:42:36;16.33;;;13.20;;
13973;SDS011;7060;43.770;4.008;2022-12-31T04:45:07;16.20;;;13.23;;
13973;SDS011;7060;43.770;4.008;2022-12-31T04:47:37;18.07;;;12.80;;
13973;SDS011;7060;43.770;4.008;2022-12-31T04:50:07;15.57;;;13.97;;
13973;SDS011;7060;43.770;4.008;2022-12-31T04:52:35;15.83;;;12.90;;
13973;SDS011;7060;43.770;4.008;2022-12-31T04:55:08;20.80;;;13.47;;
13973;SDS011;7060;43.770;4.008;2022-12-31T04:57:37;17.20;;;14.27;;
13973;SDS011;7060;43.770;4.008;2022-12-31T05:00:08;21.70;;;13.53;;
13973;SDS011;7060;43.770;4.008;2022-12-31T05:02:37;15.17;;;12.63;;
13973;SDS011;7060;43.770;4.008;2022-12-31T05:05:06;16.90;;;13.73;;
13973;SDS011;7060;43.770;4.008;2022-12-31T05:07:35;17.77;;;13.07;;
13973;SDS011;7060;43.770;4.008;2022-12-31T05:10:04;14.93;;;13.33;;
13973;SDS011;7060;43.770;4.008;2022-12-31T05:12:33;16.87;;;13.83;;
13973;SDS011;7060;43.770;4.008;2022-12-31T05:15:01;16.93;;;12.47;;
13973;SDS011;7060;43.770;4.008;2022-12-31T05:17:32;15.97;;;12.57;;
13973;SDS011;7060;43.770;4.008;2022-12-31T05:20:00;20.97;;;14.03;;
13973;SDS011;7060;43.770;4.008;2022-12-31T05:22:28;17.50;;;13.57;;
13973;SDS011;7060;43.770;4.008;2022-12-31T05:24:57;18.53;;;14.47;;
13973;SDS011;7060;43.770;4.008;2022-12-31T05:27:27;18.40;;;13.43;;
13973;SDS011;7060;43.770;4.008;2022-12-31T05:29:57;14.53;;;13.10;;
13973;SDS011;7060;43.770;4.008;2022-12-31T05:32:26;16.40;;;14.07;;
13973;SDS011;7060;43.770;4.008;2022-12-31T05:34:56;17.37;;;14.07;;
13973;SDS011;7060;43.770;4.008;2022-12-31T05:37:27;18.50;;;15.00;;
13973;SDS011;7060;43.770;4.008;2022-12-31T05:39:57;18.80;;;13.67;;
13973;SDS011;7060;43.770;4.008;2022-12-31T05:42:26;16.13;;;12.80;;
13973;SDS011;7060;43.770;4.008;2022-12-31T05:44:54;17.20;;;13.70;;
13973;SDS011;7060;43.770;4.008;2022-12-31T05:47:23;17.53;;;13.53;;
13973;SDS011;7060;43.770;4.008;2022-12-31T05:49:51;18.63;;;14.50;;
13973;SDS011;7060;43.770;4.008;2022-12-31T05:52:21;20.13;;;14.03;;
13973;SDS011;7060;43.770;4.008;2022-12-31T05:54:50;18.73;;;13.93;;
13973;SDS011;7060;43.770;4.008;2022-12-31T05:57:19;19.90;;;13.60;;
13973;SDS011;7060;43.770;4.008;2022-12-31T05:59:47;17.17;;;13.30;;
13973;SDS011;7060;43.770;4.008;2022-12-31T06:02:16;18.47;;;13.37;;
13973;SDS011;7060;43.770;4.008;2022-12-31T06:04:44;17.03;;;13.77;;
13973;SDS011;7060;43.770;4.008;2022-12-31T06:07:13;18.10;;;13.37;;
13973;SDS011;7060;43.770;4.008;2022-12-31T06:09:43;14.93;;;11.57;;
13973;SDS011;7060;43.770;4.008;2022-12-31T06:12:12;14.70;;;11.13;;
13973;SDS011;7060;43.770;4.008;2022-12-31T06:14:40;13.87;;;11.03;;
13973;SDS011;7060;43.770;4.008;2022-12-31T06:17:11;14.27;;;10.83;;
13973;SDS011;7060;43.770;4.008;2022-12-31T06:19:39;14.83;;;11.70;;
13973;SDS011;7060;43.770;4.008;2022-12-31T06:22:08;13.13;;;10.73;;
13973;SDS011;7060;43.770;4.008;2022-12-31T06:24:36;14.33;;;11.27;;
13973;SDS011;7060;43.770;4.008;2022-12-31T06:27:06;13.77;;;10.00;;
13973;SDS011;7060;43.770;4.008;2022-12-31T06:29:35;13.97;;;10.90;;
13973;SDS011;7060;43.770;4.008;2022-12-31T06:32:04;12.80;;;9.80;;
13973;SDS011;7060;43.770;4.008;2022-12-31T06:34:33;12.10;;;9.97;;
13973;SDS011;7060;43.770;4.008;2022-12-31T06:37:01;13.30;;;10.10;;
13973;SDS011;7060;43.770;4.008;2022-12-31T06:39:29;14.40;;;10.13;;
13973;SDS011;7060;43.770;4.008;2022-12-31T06:41:58;12.13;;;9.37;;
13973;SDS011;7060;43.770;4.008;2022-12-31T06:44:28;10.90;;;9.73;;
13973;SDS011;7060;43.770;4.008;2022-12-31T06:46:56;12.77;;;9.47;;
13973;SDS011;7060;43.770;4.008;2022-12-31T06:49:24;12.73;;;10.60;;
13973;SDS011;7060;43.770;4.008;2022-12-31T06:51:53;10.80;;;9.63;;
13973;SDS011;7060;43.770;4.008;2022-12-31T06:54:21;15.13;;;10.07;;
13973;SDS011;7060;43.770;4.008;2022-12-31T06:56:50;12.53;;;9.97;;
13973;SDS011;7060;43.770;4.008;2022-12-31T06:59:23;16.30;;;9.70;;
13973;SDS011;7060;43.770;4.008;2022-12-31T07:02:00;12.40;;;9.33;;
13973;SDS011;7060;43.770;4.008;2022-12-31T07:07:43;12.73;;;9.77;;
13973;SDS011;7060;43.770;4.008;2022-12-31T07:10:19;12.47;;;9.87;;
13973;SDS011;7060;43.770;4.008;2022-12-31T07:12:59;13.80;;;10.53;;
13973;SDS011;7060;43.770;4.008;2022-12-31T07:15:40;15.33;;;11.37;;
13973;SDS011;7060;43.770;4.008;2022-12-31T07:18:22;13.73;;;11.10;;
13973;SDS011;7060;43.770;4.008;2022-12-31T07:20:58;12.63;;;10.73;;
13973;SDS011;7060;43.770;4.008;2022-12-31T07:23:27;12.20;;;9.13;;
13973;SDS011;7060;43.770;4.008;2022-12-31T07:25:58;9.97;;;8.67;;
13973;SDS011;7060;43.770;4.008;2022-12-31T07:28:35;10.57;;;9.13;;
13973;SDS011;7060;43.770;4.008;2022-12-31T07:31:16;13.00;;;9.10;;
13973;SDS011;7060;43.770;4.008;2022-12-31T07:33:59;13.43;;;9.07;;
13973;SDS011;7060;43.770;4.008;2022-12-31T07:36:36;10.67;;;8.43;;
13973;SDS011;7060;43.770;4.008;2022-12-31T07:39:19;14.40;;;10.73;;
13973;SDS011;7060;43.770;4.008;2022-12-31T07:41:57;11.47;;;8.73;;
13973;SDS011;7060;43.770;4.008;2022-12-31T07:44:37;10.63;;;8.90;;
13973;SDS011;7060;43.770;4.008;2022-12-31T07:47:19;11.20;;;8.93;;
13973;SDS011;7060;43.770;4.008;2022-12-31T07:49:50;11.00;;;8.63;;
13973;SDS011;7060;43.770;4.008;2022-12-31T07:52:20;12.20;;;8.90;;
13973;SDS011;7060;43.770;4.008;2022-12-31T07:54:49;12.10;;;9.57;;
13973;SDS011;7060;43.770;4.008;2022-12-31T07:57:18;14.70;;;8.60;;
13973;SDS011;7060;43.770;4.008;2022-12-31T07:59:52;16.33;;;10.33;;
13973;SDS011;7060;43.770;4.008;2022-12-31T08:05:37;14.03;;;9.20;;
13973;SDS011;7060;43.770;4.008;2022-12-31T08:08:17;12.03;;;8.57;;
13973;SDS011;7060;43.770;4.008;2022-12-31T08:10:58;9.47;;;8.13;;
13973;SDS011;7060;43.770;4.008;2022-12-31T08:13:36;10.53;;;8.07;;
13973;SDS011;7060;43.770;4.008;2022-12-31T08:16:07;14.33;;;9.00;;
13973;SDS011;7060;43.770;4.008;2022-12-31T08:18:38;12.97;;;8.83;;
13973;SDS011;7060;43.770;4.008;2022-12-31T08:21:11;13.87;;;9.03;;
13973;SDS011;7060;43.770;4.008;2022-12-31T08:24:02;8.43;;;7.37;;
13973;SDS011;7060;43.770;4.008;2022-12-31T08:26:40;8.77;;;7.23;;
13973;SDS011;7060;43.770;4.008;2022-12-31T08:29:24;8.87;;;7.90;;
13973;SDS011;7060;43.770;4.008;2022-12-31T08:32:01;10.03;;;7.80;;
13973;SDS011;7060;43.770;4.008;2022-12-31T08:34:37;10.60;;;7.47;;
13973;SDS011;7060;43.770;4.008;2022-12-31T08:37:18;8.40;;;7.07;;
13973;SDS011;7060;43.770;4.008;2022-12-31T08:39:58;10.07;;;7.47;;
13973;SDS011;7060;43.770;4.008;2022-12-31T08:42:39;11.27;;;7.43;;
13973;SDS011;7060;43.770;4.008;2022-12-31T08:45:16;9.83;;;6.10;;
13973;SDS011;7060;43.770;4.008;2022-12-31T08:47:55;10.17;;;7.37;;
13973;SDS011;7060;43.770;4.008;2022-12-31T08:50:28;10.53;;;7.77;;
13973;SDS011;7060;43.770;4.008;2022-12-31T08:52:59;11.20;;;7.73;;
13973;SDS011;7060;43.770;4.008;2022-12-31T08:55:28;13.70;;;7.90;;
13973;SDS011;7060;43.770;4.008;2022-12-31T08:58:02;11.57;;;7.27;;
13973;SDS011;7060;43.770;4.008;2022-12-31T09:00:40;9.67;;;7.03;;
13973;SDS011;7060;43.770;4.008;2022-12-31T09:03:21;12.20;;;7.33;;
13973;SDS011;7060;43.770;4.008;2022-12-31T09:06:05;10.93;;;7.73;;
13973;SDS011;7060;43.770;4.008;2022-12-31T09:08:42;9.90;;;7.67;;
13973;SDS011;7060;43.770;4.008;2022-12-31T09:11:19;11.97;;;8.37;;
13973;SDS011;7060;43.770;4.008;2022-12-31T09:14:06;11.80;;;6.63;;
13973;SDS011;7060;43.770;4.008;2022-12-31T09:16:47;8.27;;;6.73;;
13973;SDS011;7060;43.770;4.008;2022-12-31T09:19:23;14.53;;;7.47;;
13973;SDS011;7060;43.770;4.008;2022-12-31T09:21:51;11.97;;;7.23;;
13973;SDS011;7060;43.770;4.008;2022-12-31T09:24:22;8.87;;;6.97;;
13973;SDS011;7060;43.770;4.008;2022-12-31T09:26:54;12.07;;;6.53;;
13973;SDS011;7060;43.770;4.008;2022-12-31T09:29:33;11.93;;;6.70;;
13973;SDS011;7060;43.770;4.008;2022-12-31T09:32:16;11.13;;;7.47;;
13973;SDS011;7060;43.770;4.008;2022-12-31T09:34:53;10.10;;;7.33;;
13973;SDS011;7060;43.770;4.008;2022-12-31T09:37:29;12.20;;;6.93;;
13973;SDS011;7060;43.770;4.008;2022-12-31T09:40:13;17.33;;;7.77;;
13973;SDS011;7060;43.770;4.008;2022-12-31T09:49:25;13.30;;;7.53;;
13973;SDS011;7060;43.770;4.008;2022-12-31T09:52:18;13.53;;;7.53;;
13973;SDS011;7060;43.770;4.008;2022-12-31T09:54:52;10.20;;;7.13;;
13973;SDS011;7060;43.770;4.008;2022-12-31T09:57:37;9.87;;;7.83;;
13973;SDS011;7060;43.770;4.008;2022-12-31T10:00:10;13.33;;;7.70;;
13973;SDS011;7060;43.770;4.008;2022-12-31T10:02:53;10.40;;;7.70;;
13973;SDS011;7060;43.770;4.008;2022-12-31T10:05:47;13.27;;;7.00;;
13973;SDS011;7060;43.770;4.008;2022-12-31T10:08:28;10.93;;;7.40;;
13973;SDS011;7060;43.770;4.008;2022-12-31T10:11:09;9.73;;;7.43;;
13973;SDS011;7060;43.770;4.008;2022-12-31T10:13:57;17.50;;;8.43;;
13973;SDS011;7060;43.770;4.008;2022-12-31T10:16:49;14.37;;;7.20;;
13973;SDS011;7060;43.770;4.008;2022-12-31T10:19:46;16.17;;;7.67;;
13973;SDS011;7060;43.770;4.008;2022-12-31T10:22:42;14.50;;;7.80;;
13973;SDS011;7060;43.770;4.008;2022-12-31T10:25:47;14.97;;;8.27;;
13973;SDS011;7060;43.770;4.008;2022-12-31T10:28:29;13.63;;;7.67;;
13973;SDS011;7060;43.770;4.008;2022-12-31T10:31:08;13.27;;;7.93;;
13973;SDS011;7060;43.770;4.008;2022-12-31T10:33:42;17.20;;;8.33;;
13973;SDS011;7060;43.770;4.008;2022-12-31T10:36:15;15.57;;;7.97;;
13973;SDS011;7060;43.770;4.008;2022-12-31T10:39:00;9.63;;;7.50;;
13973;SDS011;7060;43.770;4.008;2022-12-31T10:41:53;11.73;;;8.87;;
13973;SDS011;7060;43.770;4.008;2022-12-31T10:44:56;14.43;;;8.77;;
13973;SDS011;7060;43.770;4.008;2022-12-31T10:54:10;11.97;;;8.23;;
13973;SDS011;7060;43.770;4.008;2022-12-31T10:57:00;13.03;;;9.43;;
13973;SDS011;7060;43.770;4.008;2022-12-31T11:00:13;14.10;;;8.23;;
13973;SDS011;7060;43.770;4.008;2022-12-31T11:06:10;13.23;;;9.27;;
13973;SDS011;7060;43.770;4.008;2022-12-31T11:12:15;15.97;;;8.73;;
13973;SDS011;7060;43.770;4.008;2022-12-31T11:18:12;10.83;;;8.43;;
13973;SDS011;7060;43.770;4.008;2022-12-31T11:20:56;13.17;;;8.47;;
13973;SDS011;7060;43.770;4.008;2022-12-31T11:23:38;11.67;;;8.70;;
13973;SDS011;7060;43.770;4.008;2022-12-31T11:26:20;13.10;;;8.07;;
13973;SDS011;7060;43.770;4.008;2022-12-31T11:29:01;13.30;;;8.80;;
13973;SDS011;7060;43.770;4.008;2022-12-31T11:31:45;14.53;;;7.80;;
13973;SDS011;7060;43.770;4.008;2022-12-31T11:37:34;15.73;;;8.00;;
13973;SDS011;7060;43.770;4.008;2022-12-31T11:43:25;13.33;;;9.37;;
13973;SDS011;7060;43.770;4.008;2022-12-31T11:48:56;21.60;;;8.23;;
13973;SDS011;7060;43.770;4.008;2022-12-31T11:51:47;13.13;;;8.03;;
13973;SDS011;7060;43.770;4.008;2022-12-31T11:54:40;10.90;;;7.17;;
13973;SDS011;7060;43.770;4.008;2022-12-31T11:57:18;9.70;;;7.17;;
13973;SDS011;7060;43.770;4.008;2022-12-31T11:59:52;12.77;;;7.67;;
13973;SDS011;7060;43.770;4.008;2022-12-31T12:02:26;11.33;;;7.90;;
13973;SDS011;7060;43.770;4.008;2022-12-31T12:04:57;12.00;;;7.73;;
13973;SDS011;7060;43.770;4.008;2022-12-31T12:07:36;14.50;;;7.80;;
13973;SDS011;7060;43.770;4.008;2022-12-31T12:10:12;13.30;;;7.97;;
13973;SDS011;7060;43.770;4.008;2022-12-31T12:12:48;9.60;;;6.67;;
13973;SDS011;7060;43.770;4.008;2022-12-31T12:15:20;13.10;;;7.63;;
13973;SDS011;7060;43.770;4.008;2022-12-31T12:17:53;10.57;;;6.90;;
13973;SDS011;7060;43.770;4.008;2022-12-31T12:20:27;13.70;;;7.80;;
13973;SDS011;7060;43.770;4.008;2022-12-31T12:22:59;9.87;;;7.73;;
13973;SDS011;7060;43.770;4.008;2022-12-31T12:25:37;12.63;;;6.60;;
13973;SDS011;7060;43.770;4.008;2022-12-31T12:28:10;12.03;;;7.20;;
13973;SDS011;7060;43.770;4.008;2022-12-31T12:30:51;15.10;;;7.10;;
13973;SDS011;7060;43.770;4.008;2022-12-31T12:33:22;12.57;;;7.53;;
13973;SDS011;7060;43.770;4.008;2022-12-31T12:35:50;16.00;;;7.93;;
13973;SDS011;7060;43.770;4.008;2022-12-31T12:38:19;14.30;;;7.83;;
13973;SDS011;7060;43.770;4.008;2022-12-31T12:40:55;9.50;;;7.00;;
13973;SDS011;7060;43.770;4.008;2022-12-31T12:43:26;9.97;;;7.23;;
13973;SDS011;7060;43.770;4.008;2022-12-31T12:45:57;14.57;;;8.33;;
13973;SDS011;7060;43.770;4.008;2022-12-31T12:48:29;12.90;;;8.20;;
13973;SDS011;7060;43.770;4.008;2022-12-31T12:51:05;8.83;;;7.00;;
13973;SDS011;7060;43.770;4.008;2022-12-31T12:53:45;10.77;;;7.33;;
13973;SDS011;7060;43.770;4.008;2022-12-31T12:56:28;11.27;;;7.20;;
13973;SDS011;7060;43.770;4.008;2022-12-31T12:59:11;13.30;;;8.07;;
13973;SDS011;7060;43.770;4.008;2022-12-31T13:01:57;13.10;;;7.23;;
13973;SDS011;7060;43.770;4.008;2022-12-31T13:04:44;9.33;;;7.30;;
13973;SDS011;7060;43.770;4.008;2022-12-31T13:07:30;11.90;;;7.43;;
13973;SDS011;7060;43.770;4.008;2022-12-31T13:10:19;10.97;;;6.93;;
13973;SDS011;7060;43.770;4.008;2022-12-31T13:13:02;12.13;;;7.10;;
13973;SDS011;7060;43.770;4.008;2022-12-31T13:15:51;10.73;;;6.83;;
13973;SDS011;7060;43.770;4.008;2022-12-31T13:18:27;11.17;;;7.87;;
13973;SDS011;7060;43.770;4.008;2022-12-31T13:21:07;9.27;;;7.00;;
13973;SDS011;7060;43.770;4.008;2022-12-31T13:23:48;12.50;;;7.77;;
13973;SDS011;7060;43.770;4.008;2022-12-31T13:26:22;13.97;;;8.23;;
13973;SDS011;7060;43.770;4.008;2022-12-31T13:28:56;12.90;;;8.20;;
13973;SDS011;7060;43.770;4.008;2022-12-31T13:31:29;12.67;;;7.37;;
13973;SDS011;7060;43.770;4.008;2022-12-31T13:34:01;11.10;;;8.30;;
13973;SDS011;7060;43.770;4.008;2022-12-31T13:36:35;10.20;;;7.63;;
13973;SDS011;7060;43.770;4.008;2022-12-31T13:39:11;9.40;;;6.77;;
13973;SDS011;7060;43.770;4.008;2022-12-31T13:41:45;16.00;;;7.80;;
13973;SDS011;7060;43.770;4.008;2022-12-31T13:44:22;16.13;;;7.93;;
13973;SDS011;7060;43.770;4.008;2022-12-31T13:46:58;15.00;;;10.00;;
13973;SDS011;7060;43.770;4.008;2022-12-31T13:49:31;18.27;;;10.13;;
13973;SDS011;7060;43.770;4.008;2022-12-31T13:52:06;21.57;;;15.30;;
13973;SDS011;7060;43.770;4.008;2022-12-31T13:54:50;16.33;;;10.00;;
13973;SDS011;7060;43.770;4.008;2022-12-31T13:57:25;16.83;;;10.00;;
13973;SDS011;7060;43.770;4.008;2022-12-31T14:00:11;14.83;;;10.30;;
13973;SDS011;7060;43.770;4.008;2022-12-31T14:02:49;16.13;;;9.87;;
13973;SDS011;7060;43.770;4.008;2022-12-31T14:05:25;19.83;;;9.80;;
13973;SDS011;7060;43.770;4.008;2022-12-31T14:07:59;12.43;;;9.20;;
13973;SDS011;7060;43.770;4.008;2022-12-31T14:10:34;12.73;;;8.00;;
13973;SDS011;7060;43.770;4.008;2022-12-31T14:13:14;12.60;;;7.83;;
13973;SDS011;7060;43.770;4.008;2022-12-31T14:16:03;10.73;;;7.63;;
13973;SDS011;7060;43.770;4.008;2022-12-31T14:18:39;19.60;;;8.93;;
13973;SDS011;7060;43.770;4.008;2022-12-31T14:21:14;14.73;;;8.70;;
13973;SDS011;7060;43.770;4.008;2022-12-31T14:23:51;13.73;;;8.60;;
13973;SDS011;7060;43.770;4.008;2022-12-31T14:26:25;16.73;;;8.37;;
13973;SDS011;7060;43.770;4.008;2022-12-31T14:28:59;13.27;;;8.13;;
13973;SDS011;7060;43.770;4.008;2022-12-31T14:31:39;15.43;;;8.50;;
13973;SDS011;7060;43.770;4.008;2022-12-31T14:34:23;13.77;;;7.27;;
13973;SDS011;7060;43.770;4.008;2022-12-31T14:37:00;16.67;;;8.27;;
13973;SDS011;7060;43.770;4.008;2022-12-31T14:39:38;17.83;;;8.43;;
13973;SDS011;7060;43.770;4.008;2022-12-31T14:42:18;15.87;;;8.00;;
13973;SDS011;7060;43.770;4.008;2022-12-31T14:44:58;19.20;;;9.37;;
13973;SDS011;7060;43.770;4.008;2022-12-31T14:47:45;21.70;;;10.93;;
13973;SDS011;7060;43.770;4.008;2022-12-31T14:50:21;21.00;;;11.27;;
13973;SDS011;7060;43.770;4.008;2022-12-31T14:52:53;19.57;;;8.73;;
13973;SDS011;7060;43.770;4.008;2022-12-31T14:55:24;20.60;;;9.30;;
13973;SDS011;7060;43.770;4.008;2022-12-31T14:57:55;18.90;;;9.80;;
13973;SDS011;7060;43.770;4.008;2022-12-31T15:00:50;20.47;;;8.03;;
13973;SDS011;7060;43.770;4.008;2022-12-31T15:03:23;23.87;;;8.67;;
13973;SDS011;7060;43.770;4.008;2022-12-31T15:06:00;21.47;;;7.83;;
13973;SDS011;7060;43.770;4.008;2022-12-31T15:08:39;17.43;;;7.17;;
13973;SDS011;7060;43.770;4.008;2022-12-31T15:11:25;29.33;;;7.27;;
13973;SDS011;7060;43.770;4.008;2022-12-31T15:14:14;21.63;;;5.93;;
13973;SDS011;7060;43.770;4.008;2022-12-31T15:17:05;18.23;;;6.23;;
13973;SDS011;7060;43.770;4.008;2022-12-31T15:22:49;22.70;;;5.93;;
13973;SDS011;7060;43.770;4.008;2022-12-31T15:25:29;30.60;;;6.73;;
13973;SDS011;7060;43.770;4.008;2022-12-31T15:28:28;20.37;;;6.37;;
13973;SDS011;7060;43.770;4.008;2022-12-31T15:31:14;24.27;;;5.80;;
13973;SDS011;7060;43.770;4.008;2022-12-31T15:33:54;20.07;;;6.33;;
13973;SDS011;7060;43.770;4.008;2022-12-31T15:36:25;20.27;;;5.63;;
13973;SDS011;7060;43.770;4.008;2022-12-31T15:39:05;26.43;;;6.20;;
13973;SDS011;7060;43.770;4.008;2022-12-31T15:41:51;24.83;;;5.37;;
13973;SDS011;7060;43.770;4.008;2022-12-31T15:44:43;24.93;;;6.10;;
13973;SDS011;7060;43.770;4.008;2022-12-31T15:47:16;25.67;;;6.17;;
13973;SDS011;7060;43.770;4.008;2022-12-31T15:49:55;30.30;;;7.23;;
13973;SDS011;7060;43.770;4.008;2022-12-31T15:52:30;26.50;;;5.43;;
13973;SDS011;7060;43.770;4.008;2022-12-31T15:55:05;18.13;;;6.77;;
13973;SDS011;7060;43.770;4.008;2022-12-31T15:57:35;24.00;;;6.63;;
13973;SDS011;7060;43.770;4.008;2022-12-31T16:00:07;18.80;;;6.47;;
13973;SDS011;7060;43.770;4.008;2022-12-31T16:02:50;27.53;;;5.97;;
13973;SDS011;7060;43.770;4.008;2022-12-31T16:05:21;22.37;;;6.43;;
13973;SDS011;7060;43.770;4.008;2022-12-31T16:07:51;24.20;;;6.33;;
13973;SDS011;7060;43.770;4.008;2022-12-31T16:10:24;24.90;;;6.50;;
13973;SDS011;7060;43.770;4.008;2022-12-31T16:12:56;21.97;;;7.13;;
13973;SDS011;7060;43.770;4.008;2022-12-31T16:15:27;17.30;;;6.90;;
13973;SDS011;7060;43.770;4.008;2022-12-31T16:18:01;19.37;;;6.80;;